createdAt,value
2018-06-09T00:01:25.555Z,89.00
2018-06-09T00:03:55.886Z,88.90
2018-06-09T00:06:26.229Z,88.90
2018-06-09T00:08:56.517Z,89.00
2018-06-09T00:11:26.845Z,89.10
2018-06-09T00:13:57.117Z,89.10
2018-06-09T00:16:27.476Z,89.10
2018-06-09T00:18:57.780Z,89.00
2018-06-09T00:21:28.084Z,89.20
2018-06-09T00:23:58.350Z,89.30
2018-06-09T00:26:28.606Z,89.00
2018-06-09T00:28:58.905Z,89.00
2018-06-09T00:31:29.169Z,89.80
2018-06-09T00:33:59.484Z,89.30
2018-06-09T00:36:29.776Z,89.30
2018-06-09T00:39:00.126Z,89.10
2018-06-09T00:41:30.432Z,89.20
2018-06-09T00:44:00.751Z,89.50
2018-06-09T00:46:31.036Z,89.70
2018-06-09T00:49:01.391Z,89.80
2018-06-09T00:51:31.705Z,89.70
2018-06-09T00:54:02.074Z,90.10
2018-06-09T00:56:48.237Z,90.30
2018-06-09T00:59:18.533Z,90.50
2018-06-09T01:01:48.786Z,90.70
2018-06-09T01:04:19.112Z,90.80
2018-06-09T01:06:49.369Z,90.70
2018-06-09T01:09:19.627Z,90.90
2018-06-09T01:11:49.945Z,90.60
2018-06-09T01:14:20.245Z,90.50
2018-06-09T01:16:50.581Z,90.50
2018-06-09T01:19:20.968Z,90.50
2018-06-09T01:21:51.379Z,90.30
2018-06-09T01:24:21.639Z,90.10
2018-06-09T01:26:52.005Z,90.10
2018-06-09T01:29:23.228Z,90.10
2018-06-09T01:31:53.559Z,90.10
2018-06-09T01:34:23.845Z,90.20
2018-06-09T01:39:24.131Z,90.30
2018-06-09T01:41:54.433Z,90.30
2018-06-09T01:44:24.726Z,90.50
2018-06-09T01:46:55.031Z,90.60
2018-06-09T01:49:25.349Z,90.60
2018-06-09T01:51:55.613Z,90.60
2018-06-09T01:54:25.920Z,90.70
2018-06-09T01:56:56.199Z,90.70
2018-06-09T01:59:26.491Z,90.80
2018-06-09T02:01:56.835Z,90.90
2018-06-09T02:04:27.101Z,90.70
2018-06-09T02:06:57.406Z,90.70
2018-06-09T02:09:27.673Z,90.60
2018-06-09T02:11:57.946Z,90.60
2018-06-09T02:14:28.250Z,90.80
2018-06-09T02:16:58.504Z,90.80
2018-06-09T02:19:28.810Z,90.70
2018-06-09T02:21:59.068Z,90.80
2018-06-09T02:24:29.393Z,90.90
2018-06-09T02:26:59.703Z,90.80
2018-06-09T02:29:29.991Z,90.80
2018-06-09T02:32:00.286Z,90.60
2018-06-09T02:34:30.609Z,90.70
2018-06-09T02:37:00.876Z,90.70
2018-06-09T02:39:31.161Z,90.90
2018-06-09T02:42:01.433Z,91.00
2018-06-09T02:44:31.705Z,90.90
2018-06-09T02:47:01.997Z,90.90
2018-06-09T02:49:32.297Z,91.00
2018-06-09T02:52:02.624Z,91.00
2018-06-09T02:54:32.892Z,91.10
2018-06-09T02:59:33.116Z,91.30
2018-06-09T03:02:03.439Z,91.30
2018-06-09T03:04:33.787Z,91.20
2018-06-09T03:07:04.072Z,91.00
2018-06-09T03:09:34.376Z,91.20
2018-06-09T03:12:04.648Z,91.10
2018-06-09T03:14:35.009Z,91.30
2018-06-09T03:17:05.280Z,91.30
2018-06-09T03:19:35.554Z,91.30
2018-06-09T03:22:05.860Z,91.40
2018-06-09T03:24:36.129Z,91.40
2018-06-09T03:27:06.421Z,91.30
2018-06-09T03:29:36.701Z,91.30
2018-06-09T03:32:07.005Z,91.40
2018-06-09T03:34:37.268Z,91.10
2018-06-09T03:37:07.533Z,91.40
2018-06-09T03:39:37.820Z,91.40
2018-06-09T03:42:08.102Z,91.50
2018-06-09T03:44:38.437Z,91.30
2018-06-09T03:47:08.728Z,91.10
2018-06-09T03:49:39.051Z,91.00
2018-06-09T03:52:09.334Z,91.00
2018-06-09T03:54:39.685Z,91.00
2018-06-09T03:57:09.996Z,90.90
2018-06-09T03:59:40.301Z,90.70
2018-06-09T04:02:10.557Z,90.70
2018-06-09T04:04:40.879Z,90.80
2018-06-09T04:07:11.176Z,90.80
2018-06-09T04:09:41.497Z,90.60
2018-06-09T04:12:11.786Z,90.70
2018-06-09T04:14:42.084Z,90.90
2018-06-09T04:17:12.418Z,91.40
2018-06-09T04:19:42.696Z,91.20
2018-06-09T04:22:12.996Z,91.20
2018-06-09T04:27:13.213Z,90.60
2018-06-09T04:29:43.812Z,90.70
2018-06-09T04:32:14.097Z,91.00
2018-06-09T04:34:44.393Z,90.90
2018-06-09T04:37:14.686Z,90.80
2018-06-09T04:39:44.963Z,90.70
2018-06-09T04:42:15.296Z,90.60
2018-06-09T04:44:45.649Z,90.90
2018-06-09T04:47:15.917Z,91.00
2018-06-09T04:49:46.243Z,91.10
2018-06-09T04:52:16.575Z,91.30
2018-06-09T04:54:46.899Z,91.20
2018-06-09T04:57:17.188Z,91.20
2018-06-09T04:59:47.480Z,91.30
2018-06-09T05:02:17.762Z,91.20
2018-06-09T05:04:48.118Z,91.30
2018-06-09T05:07:18.464Z,91.10
2018-06-09T05:09:48.756Z,91.20
2018-06-09T05:14:48.977Z,91.60
2018-06-09T05:17:19.328Z,91.90
2018-06-09T05:19:49.621Z,92.00
2018-06-09T05:22:19.949Z,92.20
2018-06-09T05:24:50.257Z,91.60
2018-06-09T05:27:20.546Z,90.70
2018-06-09T05:29:50.885Z,90.40
2018-06-09T05:32:21.784Z,90.20
2018-06-09T05:34:52.088Z,90.20
2018-06-09T05:37:22.394Z,90.80
2018-06-09T05:39:52.709Z,91.50
2018-06-09T05:42:23.040Z,91.90
2018-06-09T05:44:53.337Z,92.40
2018-06-09T05:47:23.759Z,92.60
2018-06-09T05:49:54.073Z,92.90
2018-06-09T05:52:24.466Z,92.50
2018-06-09T05:57:24.701Z,91.50
2018-06-09T05:59:55.028Z,91.20
2018-06-09T06:04:55.307Z,92.00
2018-06-09T06:07:25.605Z,92.60
2018-06-09T06:09:55.926Z,92.40
2018-06-09T06:12:26.206Z,92.70
2018-06-09T06:14:56.519Z,92.70
2018-06-09T06:17:26.813Z,93.00
2018-06-09T06:19:57.093Z,93.00
2018-06-09T06:22:27.416Z,92.80
2018-06-09T06:24:57.724Z,92.90
2018-06-09T06:27:28.136Z,90.90
2018-06-09T06:29:58.510Z,91.10
2018-06-09T06:32:29.628Z,90.30
2018-06-09T06:34:59.944Z,88.00
2018-06-09T06:37:30.280Z,88.00
2018-06-09T06:40:00.640Z,87.50
2018-06-09T06:42:31.093Z,87.20
2018-06-09T06:45:01.398Z,85.90
2018-06-09T06:47:31.750Z,85.20
2018-06-09T06:50:02.230Z,83.70
2018-06-09T06:52:34.595Z,85.40
2018-06-09T06:55:04.966Z,87.10
2018-06-09T06:57:35.489Z,89.00
2018-06-09T07:00:05.792Z,89.10
2018-06-09T07:02:36.081Z,88.60
2018-06-09T07:05:06.336Z,87.90
2018-06-09T07:07:36.583Z,87.80
2018-06-09T07:10:06.900Z,87.70
2018-06-09T07:12:37.248Z,87.90
2018-06-09T07:15:07.615Z,86.90
2018-06-09T07:17:37.974Z,86.20
2018-06-09T07:20:09.412Z,86.40
2018-06-09T07:22:40.766Z,86.80
2018-06-09T07:25:11.238Z,87.20
2018-06-09T07:27:42.161Z,86.80
2018-06-09T07:30:12.413Z,85.20
2018-06-09T07:32:42.685Z,85.30
2018-06-09T07:35:13.031Z,84.70
2018-06-09T07:37:43.212Z,83.90
2018-06-09T07:40:13.502Z,84.40
2018-06-09T07:42:43.836Z,83.80
2018-06-09T07:45:14.188Z,84.40
2018-06-09T07:47:44.526Z,84.70
2018-06-09T07:50:14.840Z,84.90
2018-06-09T07:52:45.296Z,85.10
2018-06-09T07:55:15.588Z,84.40
2018-06-09T07:57:46.074Z,84.10
2018-06-09T08:00:16.381Z,82.50
2018-06-09T08:02:46.712Z,81.60
2018-06-09T08:05:17.065Z,80.30
2018-06-09T08:07:47.625Z,80.30
2018-06-09T08:10:17.996Z,78.70
2018-06-09T08:12:48.375Z,78.80
2018-06-09T08:15:18.752Z,79.40
2018-06-09T08:17:49.151Z,80.00
2018-06-09T08:20:19.448Z,79.20
2018-06-09T08:22:49.818Z,78.50
2018-06-09T08:25:20.224Z,77.90
2018-06-09T08:27:50.636Z,78.40
2018-06-09T08:30:21.012Z,78.30
2018-06-09T08:32:51.336Z,78.30
2018-06-09T08:35:21.596Z,78.80
2018-06-09T08:37:51.967Z,79.50
2018-06-09T08:40:22.393Z,78.80
2018-06-09T08:42:52.743Z,78.20
2018-06-09T08:45:23.086Z,80.00
2018-06-09T08:47:53.508Z,80.50
2018-06-09T08:50:23.805Z,79.80
2018-06-09T08:52:54.132Z,79.40
2018-06-09T08:55:24.419Z,79.90
2018-06-09T08:57:55.078Z,77.90
2018-06-09T09:00:25.347Z,78.30
2018-06-09T09:02:55.684Z,78.80
2018-06-09T09:05:25.997Z,78.80
2018-06-09T09:07:56.341Z,79.00
2018-06-09T09:10:26.712Z,78.40
2018-06-09T09:12:57.094Z,79.40
2018-06-09T09:15:27.312Z,82.50
2018-06-09T09:17:57.600Z,83.10
2018-06-09T09:22:57.810Z,85.00
2018-06-09T09:25:28.114Z,85.70
2018-06-09T09:27:58.469Z,87.30
2018-06-09T09:30:28.769Z,85.60
2018-06-09T09:32:59.097Z,83.20
2018-06-09T09:35:29.441Z,82.80
2018-06-09T09:37:59.796Z,82.80
2018-06-09T09:40:30.101Z,82.50
2018-06-09T09:43:00.421Z,79.40
2018-06-09T09:45:30.779Z,78.60
2018-06-09T09:48:01.163Z,80.40
2018-06-09T09:50:31.458Z,80.50
2018-06-09T09:53:01.774Z,81.10
2018-06-09T09:55:32.098Z,81.50
2018-06-09T09:58:03.787Z,82.90
2018-06-09T10:00:39.953Z,85.40
2018-06-09T10:03:10.309Z,84.40
2018-06-09T10:05:40.633Z,85.70
2018-06-09T10:08:10.937Z,86.10
2018-06-09T10:10:41.296Z,87.50
2018-06-09T10:13:11.715Z,89.00
2018-06-09T10:15:42.061Z,88.50
2018-06-09T10:18:12.429Z,86.50
2018-06-09T10:20:42.688Z,85.90
2018-06-09T10:23:13.017Z,84.10
2018-06-09T10:25:43.312Z,83.40
2018-06-09T10:28:13.713Z,84.00
2018-06-09T10:30:43.959Z,84.40
2018-06-09T10:33:14.328Z,83.70
2018-06-09T10:35:44.653Z,83.00
2018-06-09T10:38:15.053Z,83.00
2018-06-09T10:40:45.344Z,82.00
2018-06-09T10:43:15.650Z,81.50
2018-06-09T10:45:45.945Z,79.30
2018-06-09T10:48:16.307Z,77.50
2018-06-09T10:50:46.655Z,79.60
2018-06-09T10:53:17.009Z,80.10
2018-06-09T10:55:47.297Z,81.50
2018-06-09T10:58:17.649Z,81.20
2018-06-09T11:00:48.000Z,78.60
2018-06-09T11:03:18.353Z,77.30
2018-06-09T11:05:48.704Z,77.20
2018-06-09T11:10:48.889Z,80.40
2018-06-09T11:13:19.230Z,81.40
2018-06-09T11:15:49.539Z,82.10
2018-06-09T11:18:19.877Z,82.70
2018-06-09T11:20:50.188Z,81.50
2018-06-09T11:23:20.469Z,81.00
2018-06-09T11:25:51.713Z,82.10
2018-06-09T11:28:22.027Z,82.20
2018-06-09T11:30:52.326Z,80.00
2018-06-09T11:33:22.678Z,78.90
2018-06-09T11:38:22.956Z,77.50
2018-06-09T11:40:53.305Z,74.10
2018-06-09T11:43:23.644Z,72.60
2018-06-09T11:45:53.989Z,68.90
2018-06-09T11:50:54.168Z,65.80
2018-06-09T11:53:24.440Z,64.40
2018-06-09T11:58:24.785Z,58.60
2018-06-09T12:03:25.082Z,55.80
2018-06-09T12:05:55.407Z,55.20
2018-06-09T12:08:25.696Z,53.80
2018-06-09T12:10:55.996Z,54.90
2018-06-09T12:15:56.239Z,54.20
2018-06-09T12:20:56.432Z,52.40
2018-06-09T12:23:26.756Z,53.50
2018-06-09T12:25:57.064Z,53.50
2018-06-09T12:28:27.347Z,53.80
2018-06-09T12:33:27.553Z,54.30
2018-06-09T12:35:57.857Z,55.00
2018-06-09T12:38:28.174Z,51.20
2018-06-09T12:40:58.488Z,51.70
2018-06-09T12:43:28.776Z,50.30
2018-06-09T12:50:58.908Z,52.90
2018-06-09T12:53:29.140Z,53.90
2018-06-09T12:58:29.377Z,52.10
2018-06-09T13:00:59.801Z,51.70
2018-06-09T13:03:30.065Z,50.80
2018-06-09T13:06:00.353Z,50.80
2018-06-09T13:08:30.671Z,50.10
2018-06-09T13:11:01.000Z,49.90
2018-06-09T13:13:31.341Z,49.10
2018-06-09T13:18:31.583Z,42.60
2018-06-09T13:21:01.909Z,40.20
2018-06-09T13:23:32.255Z,36.70
2018-06-09T13:26:02.524Z,35.80
2018-06-09T13:28:32.871Z,35.30
2018-06-09T13:31:03.202Z,34.00
2018-06-09T13:33:33.557Z,34.30
2018-06-09T13:36:03.937Z,34.90
2018-06-09T13:38:34.238Z,33.50
2018-06-09T13:41:04.558Z,33.10
2018-06-09T13:43:34.862Z,34.40
2018-06-09T13:46:05.205Z,35.10
2018-06-09T13:48:35.532Z,34.60
2018-06-09T13:51:05.927Z,35.40
2018-06-09T13:53:36.267Z,34.60
2018-06-09T13:56:06.593Z,35.30
2018-06-09T13:58:36.920Z,35.00
2018-06-09T14:01:07.598Z,34.80
2018-06-09T14:03:37.919Z,34.30
2018-06-09T14:08:38.212Z,34.80
2018-06-09T14:11:08.700Z,34.80
2018-06-09T14:13:39.546Z,35.40
2018-06-09T14:16:09.926Z,35.50
2018-06-09T14:18:40.244Z,36.40
2018-06-09T14:21:10.581Z,38.60
2018-06-09T14:23:41.147Z,39.20
2018-06-09T14:26:11.496Z,38.60
2018-06-09T14:28:41.804Z,38.80
2018-06-09T14:31:12.148Z,41.20
2018-06-09T14:33:42.453Z,42.10
2018-06-09T14:36:12.812Z,41.00
2018-06-09T14:38:43.139Z,41.10
2018-06-09T14:41:13.600Z,41.30
2018-06-09T14:43:43.951Z,42.20
2018-06-09T14:46:14.337Z,43.30
2018-06-09T14:48:44.748Z,42.90
2018-06-09T14:51:15.588Z,43.70
2018-06-09T14:53:46.086Z,43.80
2018-06-09T14:56:16.352Z,44.20
2018-06-09T15:01:17.448Z,43.00
2018-06-09T15:03:48.452Z,42.90
2018-06-09T15:06:18.981Z,42.30
2018-06-09T15:11:20.061Z,42.20
2018-06-09T15:13:50.318Z,42.40
2018-06-09T15:16:20.623Z,43.80
2018-06-09T15:18:51.124Z,43.50
2018-06-09T15:26:21.433Z,43.10
2018-06-09T15:28:51.740Z,41.10
2018-06-09T15:31:22.006Z,40.20
2018-06-09T15:33:52.298Z,40.70
2018-06-09T15:36:22.571Z,41.10
2018-06-09T15:41:22.750Z,42.20
2018-06-09T15:43:53.137Z,40.80
2018-06-09T15:46:23.473Z,39.10
2018-06-09T15:48:53.884Z,39.40
2018-06-09T15:53:54.104Z,40.50
2018-06-09T15:56:24.444Z,40.70
2018-06-09T16:01:24.728Z,41.50
2018-06-09T16:03:55.044Z,41.00
2018-06-09T16:06:25.441Z,41.50
2018-06-09T16:11:25.771Z,40.70
2018-06-09T16:13:56.192Z,41.10
2018-06-09T16:16:26.657Z,40.50
2018-06-09T16:18:57.860Z,40.60
2018-06-09T16:21:28.224Z,40.40
2018-06-09T16:23:58.597Z,39.40
2018-06-09T16:26:28.944Z,40.70
2018-06-09T16:31:30.036Z,40.10
2018-06-09T16:34:00.355Z,41.80
2018-06-09T16:36:30.748Z,43.00
2018-06-09T16:39:01.189Z,43.80
2018-06-09T16:41:31.475Z,44.30
2018-06-09T16:44:02.041Z,45.10
2018-06-09T16:46:32.313Z,46.20
2018-06-09T16:49:02.617Z,47.60
2018-06-09T16:51:32.911Z,47.90
2018-06-09T16:59:03.144Z,51.20
2018-06-09T17:01:33.413Z,52.10
2018-06-09T17:04:03.739Z,53.10
2018-06-09T17:06:34.048Z,53.30
2018-06-09T17:09:06.332Z,53.80
2018-06-09T17:11:36.686Z,55.10
2018-06-09T17:14:07.013Z,56.30
2018-06-09T17:16:38.231Z,57.50
2018-06-09T17:19:08.555Z,58.10
2018-06-09T17:21:38.930Z,59.10
2018-06-09T17:24:09.229Z,59.20
2018-06-09T17:26:39.528Z,59.80
2018-06-09T17:29:09.894Z,59.90
2018-06-09T17:31:40.234Z,60.20
2018-06-09T17:34:10.552Z,61.70
2018-06-09T17:36:41.788Z,62.30
2018-06-09T17:39:12.068Z,63.20
2018-06-09T17:41:42.934Z,63.60
2018-06-09T17:44:13.205Z,64.00
2018-06-09T17:46:43.600Z,64.10
2018-06-09T17:49:13.870Z,64.60
2018-06-09T17:51:44.153Z,64.40
2018-06-09T17:54:14.413Z,64.40
2018-06-09T17:56:44.830Z,64.80
2018-06-09T18:01:45.112Z,63.70
2018-06-09T18:04:15.477Z,64.40
2018-06-09T18:06:45.801Z,64.30
2018-06-09T18:09:16.181Z,65.20
2018-06-09T18:11:46.493Z,65.70
2018-06-09T18:14:16.834Z,66.20
2018-06-09T18:16:47.049Z,66.50
2018-06-09T18:19:17.447Z,67.00
2018-06-09T18:21:47.668Z,67.20
2018-06-09T18:24:17.953Z,67.80
2018-06-09T18:26:48.267Z,68.40
2018-06-09T18:29:18.743Z,68.70
2018-06-09T18:31:49.080Z,68.80
2018-06-09T18:34:19.440Z,69.50
2018-06-09T18:36:49.707Z,70.20
2018-06-09T18:41:49.948Z,70.00
2018-06-09T18:44:20.284Z,69.80
2018-06-09T18:46:50.662Z,70.60
2018-06-09T18:49:20.994Z,71.10
2018-06-09T18:51:51.333Z,70.70
2018-06-09T18:54:21.670Z,70.70
2018-06-09T18:56:51.988Z,70.90
2018-06-09T18:59:22.350Z,71.40
2018-06-09T19:01:52.621Z,71.80
2018-06-09T19:04:22.989Z,72.90
2018-06-09T19:06:53.304Z,73.50
2018-06-09T19:09:23.656Z,74.30
2018-06-09T19:11:54.003Z,74.20
2018-06-09T19:14:24.291Z,75.00
2018-06-09T19:16:54.661Z,75.40
2018-06-09T19:19:24.974Z,76.00
2018-06-09T19:21:56.280Z,76.70
2018-06-09T19:26:57.376Z,77.40
2018-06-09T19:29:27.756Z,77.10
2018-06-09T19:31:58.109Z,77.70
2018-06-09T19:34:28.428Z,77.20
2018-06-09T19:36:58.736Z,77.10
2018-06-09T19:39:29.129Z,78.00
2018-06-09T19:41:59.481Z,77.20
2018-06-09T19:44:29.771Z,77.00
2018-06-09T19:47:00.125Z,77.50
2018-06-09T19:49:30.474Z,77.60
2018-06-09T19:52:00.786Z,78.00
2018-06-09T19:54:31.068Z,78.80
2018-06-09T19:57:01.690Z,79.20
2018-06-09T19:59:31.964Z,79.30
2018-06-09T20:02:02.364Z,79.50
2018-06-09T20:04:32.661Z,80.10
2018-06-09T20:07:02.978Z,79.80
2018-06-09T20:09:33.325Z,80.50
2018-06-09T20:12:04.752Z,80.40
2018-06-09T20:14:35.152Z,80.20
2018-06-09T20:17:05.567Z,79.90
2018-06-09T20:19:35.854Z,80.00
2018-06-09T20:22:06.129Z,80.30
2018-06-09T20:24:36.489Z,80.40
2018-06-09T20:27:06.805Z,79.70
2018-06-09T20:29:37.182Z,79.70
2018-06-09T20:32:07.514Z,79.50
2018-06-09T20:34:37.796Z,79.70
2018-06-09T20:39:38.057Z,81.10
2018-06-09T20:42:08.421Z,81.30
2018-06-09T20:44:38.742Z,81.30
2018-06-09T20:47:09.100Z,82.20
2018-06-09T20:52:09.484Z,81.90
2018-06-09T20:54:39.799Z,82.10
2018-06-09T20:57:10.336Z,81.70
2018-06-09T20:59:40.684Z,81.50
2018-06-09T21:02:11.001Z,81.30
2018-06-09T21:04:41.376Z,81.30
2018-06-09T21:07:11.678Z,81.30
2018-06-09T21:09:42.026Z,81.60
2018-06-09T21:12:12.317Z,81.50
2018-06-09T21:14:42.644Z,81.50
2018-06-09T21:17:12.949Z,81.40
2018-06-09T21:19:43.396Z,81.90
2018-06-09T21:22:13.667Z,80.90
2018-06-09T21:24:44.014Z,81.10
2018-06-09T21:27:19.383Z,81.70
2018-06-09T21:29:55.566Z,82.40
2018-06-09T21:32:29.798Z,82.80
2018-06-09T21:35:22.457Z,82.90
2018-06-09T21:37:56.813Z,82.50
2018-06-09T21:40:31.181Z,81.90
2018-06-09T21:45:41.966Z,82.60
2018-06-09T21:48:12.273Z,83.30
2018-06-09T21:50:42.561Z,83.60
2018-06-09T21:53:12.828Z,83.70
2018-06-09T21:58:13.184Z,84.10
2018-06-09T22:00:43.538Z,84.30
2018-06-09T22:03:13.817Z,84.70
2018-06-09T22:05:44.193Z,84.70
2018-06-09T22:08:14.465Z,84.90
2018-06-09T22:10:44.804Z,84.90
2018-06-09T22:13:15.169Z,85.10
2018-06-09T22:15:45.514Z,84.90
2018-06-09T22:18:15.800Z,84.30
2018-06-09T22:20:46.160Z,84.70
2018-06-09T22:23:16.453Z,84.90
2018-06-09T22:25:51.837Z,85.10
2018-06-09T22:28:22.135Z,84.70
2018-06-09T22:30:52.436Z,84.70
2018-06-09T22:33:22.797Z,84.10
2018-06-09T22:35:53.122Z,84.10
2018-06-09T22:38:29.051Z,84.00
2018-06-09T22:40:59.341Z,84.10
2018-06-09T22:43:29.677Z,84.10
2018-06-09T22:46:00.006Z,84.40
2018-06-09T22:48:30.293Z,84.60
2018-06-09T22:51:00.599Z,85.00
2018-06-09T22:53:30.939Z,85.50
2018-06-09T22:56:01.175Z,85.60
2018-06-09T22:58:31.494Z,85.70
2018-06-09T23:08:31.545Z,85.40
2018-06-09T23:11:01.878Z,85.70
2018-06-09T23:13:32.163Z,85.70
2018-06-09T23:16:02.441Z,85.80
2018-06-09T23:18:32.732Z,86.30
2018-06-09T23:21:03.006Z,86.80
2018-06-09T23:23:33.300Z,86.80
2018-06-09T23:28:33.489Z,87.60
2018-06-09T23:31:03.792Z,88.00
2018-06-09T23:33:34.125Z,88.50
2018-06-09T23:36:04.375Z,88.40
2018-06-09T23:38:34.703Z,88.60
2018-06-09T23:41:05.013Z,88.90
2018-06-09T23:43:35.338Z,88.70
2018-06-09T23:46:05.621Z,88.20
2018-06-09T23:48:35.888Z,87.90
2018-06-09T23:51:06.210Z,87.30
2018-06-09T23:53:36.480Z,87.00
2018-06-09T23:56:06.767Z,86.90
2018-06-09T23:58:37.020Z,86.80
